Time;durP1;ratioP1;P1;durP2;ratioP2;P2;SDS_P1;SDS_P2;PMS_P1;PMS_P2;Temp;Humidity;BMP_temperature;BMP_pressure;BME280_temperature;BME280_humidity;BME280_pressure;Samples;Min_cycle;Max_cycle;Signal;HPM_P1;HPM_P2
2022/04/19 00:00:20;;;;;;;7.60;6.22;;;;;;;6.52;86.02;99927.27;1730648;83;20946;-80
2022/04/19 00:02:47;;;;;;;6.47;5.87;;;;;;;6.53;85.72;99926.33;1730777;81;21002;-79
2022/04/19 00:05:14;;;;;;;6.47;5.87;;;;;;;6.50;85.38;99924.73;1730600;83;21151;-79
2022/04/19 00:07:44;;;;;;;6.60;6.00;;;;;;;6.46;85.59;99922.38;1730619;83;20979;-79
2022/04/19 00:10:11;;;;;;;6.50;6.00;;;;;;;6.45;85.45;99920.25;1731408;82;20879;-79
2022/04/19 00:12:39;;;;;;;10.30;6.42;;;;;;;6.47;85.73;99917.10;1741778;82;20955;-79
2022/04/19 00:15:08;;;;;;;7.40;6.70;;;;;;;6.51;85.63;99919.89;1741748;82;21282;-80
2022/04/19 00:17:36;;;;;;;7.85;6.15;;;;;;;6.49;85.47;99914.39;1741731;82;20930;-80
2022/04/19 00:20:04;;;;;;;7.22;6.53;;;;;;;6.46;85.35;99910.66;1741634;82;20888;-78
2022/04/19 00:22:31;;;;;;;6.92;6.22;;;;;;;6.46;85.61;99921.91;1742477;82;20899;-78
2022/04/19 00:24:59;;;;;;;7.87;6.40;;;;;;;6.47;85.59;99919.70;1741619;82;20880;-79
2022/04/19 00:27:27;;;;;;;7.53;6.72;;;;;;;6.44;85.45;99905.06;1741797;82;20892;-81
2022/04/19 00:29:54;;;;;;;6.67;5.97;;;;;;;6.41;85.51;99897.89;1742147;82;21231;-80
2022/04/19 00:32:20;;;;;;;7.30;6.60;;;;;;;6.42;85.86;99894.35;1741814;82;20860;-79
2022/04/19 00:34:48;;;;;;;6.80;5.85;;;;;;;6.43;85.78;99894.28;1741735;82;20847;-80
2022/04/19 00:37:15;;;;;;;7.00;6.05;;;;;;;6.42;85.75;99891.75;1741722;82;20959;-79
2022/04/19 00:39:42;;;;;;;8.08;6.37;;;;;;;6.42;85.92;99891.31;1741636;82;20955;-79
2022/04/19 00:42:08;;;;;;;7.85;5.92;;;;;;;6.42;85.70;99891.31;1741731;82;21225;-80
2022/04/19 00:44:39;;;;;;;6.83;6.12;;;;;;;6.37;85.70;99902.41;1741639;82;20954;-80
2022/04/19 00:47:07;;;;;;;6.85;6.12;;;;;;;6.35;85.84;99909.47;1741646;82;20986;-79
2022/04/19 00:49:42;;;;;;;6.92;6.22;;;;;;;6.35;85.83;99902.13;1741716;82;21427;-79
2022/04/19 00:52:12;;;;;;;6.03;5.37;;;;;;;6.34;85.98;99893.48;1741801;82;20915;-79
2022/04/19 00:54:41;;;;;;;6.72;5.90;;;;;;;6.32;86.03;99890.11;1741792;82;21912;-80
2022/04/19 00:57:09;;;;;;;6.58;5.85;;;;;;;6.32;86.11;99868.45;1715162;82;20891;-80
2022/04/19 00:59:36;;;;;;;7.37;5.72;;;;;;;6.30;86.09;99867.69;1741892;82;20990;-79
2022/04/19 01:02:05;;;;;;;7.10;6.10;;;;;;;6.29;86.32;99863.39;1741653;82;20986;-80
2022/04/19 01:04:32;;;;;;;6.17;5.03;;;;;;;6.29;86.44;99865.56;1741615;82;20872;-79
2022/04/19 01:07:00;;;;;;;6.72;5.20;;;;;;;6.32;86.45;99856.73;1741647;82;21276;-79
2022/04/19 01:09:28;;;;;;;10.48;5.28;;;;;;;6.30;86.32;99875.50;1741684;82;20879;-79
2022/04/19 01:14:43;;;;;;;6.42;5.58;;;;;;;6.31;86.66;99864.98;1741791;82;20982;-79
2022/04/19 01:17:10;;;;;;;5.95;5.35;;;;;;;6.34;86.75;99864.00;1741818;82;20863;-80
2022/04/19 01:19:40;;;;;;;5.08;4.58;;;;;;;6.35;86.61;99851.34;1741807;82;20860;-80
2022/04/19 01:22:13;;;;;;;6.10;5.50;;;;;;;6.34;86.65;99854.42;1741476;82;20871;-80
2022/04/19 01:24:43;;;;;;;5.05;4.65;;;;;;;6.32;86.45;99846.32;1741616;82;20962;-79
2022/04/19 01:27:13;;;;;;;6.08;4.97;;;;;;;6.30;86.64;99849.47;1741718;82;20868;-80
2022/04/19 01:29:42;;;;;;;5.20;4.70;;;;;;;6.31;86.65;99847.23;1741663;82;20855;-80
2022/04/19 01:32:09;;;;;;;5.37;4.30;;;;;;;6.31;86.68;99847.23;1714928;82;21147;-79
2022/04/19 01:34:37;;;;;;;5.78;4.83;;;;;;;6.32;86.90;99848.92;1742563;82;21396;-80
2022/04/19 01:37:06;;;;;;;6.00;3.92;;;;;;;6.30;86.76;99851.60;1741433;81;20962;-78
2022/04/19 01:42:19;;;;;;;5.08;4.05;;;;;;;6.30;86.79;99862.48;1741638;82;20879;-79
2022/04/19 01:44:49;;;;;;;5.10;4.47;;;;;;;6.30;86.83;99870.30;1741109;82;21301;-79
2022/04/19 01:47:17;;;;;;;5.12;4.28;;;;;;;6.33;87.13;99863.61;1741500;82;20962;-79
2022/04/19 01:49:45;;;;;;;4.78;4.08;;;;;;;6.38;87.18;99848.56;1741553;82;20876;-79
2022/04/19 01:52:13;;;;;;;7.58;4.65;;;;;;;6.40;86.97;99850.63;1741733;82;20876;-79
2022/04/19 01:54:42;;;;;;;5.20;3.87;;;;;;;6.37;86.92;99858.62;1741642;82;20884;-79
2022/04/19 01:57:10;;;;;;;5.95;4.00;;;;;;;6.37;87.08;99873.77;1741866;82;21174;-79
2022/04/19 01:59:39;;;;;;;5.75;4.40;;;;;;;6.40;87.10;99867.11;1740244;82;20908;-79
2022/04/19 02:02:10;;;;;;;4.85;4.08;;;;;;;6.44;87.21;99862.09;1741035;81;21053;-78
2022/04/19 02:04:37;;;;;;;5.78;4.90;;;;;;;6.48;87.07;99864.07;1741535;82;21461;-79
2022/04/19 02:07:06;;;;;;;5.95;4.30;;;;;;;6.46;86.88;99865.92;1741577;82;21430;-80
2022/04/19 02:09:34;;;;;;;5.12;4.60;;;;;;;6.47;86.92;99863.70;1741717;82;21252;-80
2022/04/19 02:12:05;;;;;;;4.65;4.08;;;;;;;6.50;86.96;99871.81;1741517;82;20966;-80
2022/04/19 02:14:47;;;;;;;3.98;3.33;;;;;;;6.52;87.00;99881.69;1740709;82;20891;-79
2022/04/19 02:19:36;;;;;;;4.78;4.37;;;;;;;6.69;87.34;99876.83;1816516;79;22586;-80
2022/04/19 02:22:09;;;;;;;3.55;3.20;;;;;;;6.68;87.25;99884.28;1789769;80;20979;-78
2022/04/19 02:24:34;;;;;;;4.35;3.90;;;;;;;6.74;87.10;99885.25;1789818;80;20888;-80
2022/04/19 02:27:01;;;;;;;5.05;4.55;;;;;;;6.74;86.54;99886.08;1790003;79;20940;-80
2022/04/19 02:29:30;;;;;;;9.08;5.03;;;;;;;6.71;86.40;99882.32;1789590;80;21021;-79
2022/04/19 02:31:58;;;;;;;7.40;5.37;;;;;;;6.74;86.78;99873.52;1789645;80;20856;-80
2022/04/19 02:34:26;;;;;;;5.72;4.20;;;;;;;6.80;86.76;99870.55;1789448;80;20936;-81
2022/04/19 02:36:53;;;;;;;7.05;4.75;;;;;;;6.83;86.54;99871.70;1789569;80;21244;-79
2022/04/19 02:39:22;;;;;;;5.15;4.03;;;;;;;6.84;86.25;99875.49;1789500;80;20931;-80
2022/04/19 02:41:52;;;;;;;6.47;4.50;;;;;;;6.88;86.29;99882.69;1789740;80;20931;-80
2022/04/19 02:44:18;;;;;;;6.15;4.85;;;;;;;6.87;85.67;99872.34;1789662;80;21018;-79
2022/04/19 02:46:49;;;;;;;7.70;4.20;;;;;;;6.81;85.64;99868.33;1788469;80;20991;-79
2022/04/19 02:49:15;;;;;;;5.33;4.37;;;;;;;6.80;85.81;99877.06;1790086;80;21155;-79
2022/04/19 02:51:43;;;;;;;6.55;4.58;;;;;;;6.78;85.69;99876.30;1789783;80;20888;-78
2022/04/19 02:54:11;;;;;;;5.47;4.25;;;;;;;6.72;85.46;99878.80;1789545;80;21435;-80
2022/04/19 02:56:37;;;;;;;4.22;3.83;;;;;;;6.69;85.68;99884.64;1789812;80;21408;-79
2022/04/19 02:59:05;;;;;;;6.62;4.40;;;;;;;6.69;85.99;99889.38;1789579;80;20856;-79
2022/04/19 03:01:33;;;;;;;5.37;3.92;;;;;;;6.75;86.30;99885.61;1789450;80;20932;-78
2022/04/19 03:04:00;;;;;;;5.25;4.33;;;;;;;6.81;86.07;99877.45;1789656;80;20927;-80
2022/04/19 03:06:29;;;;;;;7.00;5.37;;;;;;;6.82;85.82;99886.94;1789387;80;20971;-79
2022/04/19 03:08:56;;;;;;;6.55;5.00;;;;;;;6.82;86.09;99896.89;1789418;80;20979;-79
2022/04/19 03:11:23;;;;;;;6.00;4.22;;;;;;;6.90;86.21;99906.06;1789556;80;20935;-79
2022/04/19 03:13:50;;;;;;;6.15;4.97;;;;;;;6.95;85.91;99896.22;1789375;79;21229;-81
2022/04/19 03:16:18;;;;;;;7.78;4.50;;;;;;;6.93;85.45;99898.06;1773861;80;20974;-79
2022/04/19 03:18:46;;;;;;;5.53;4.20;;;;;;;6.90;85.35;99904.30;1786879;80;20856;-80
2022/04/19 03:21:14;;;;;;;7.83;4.50;;;;;;;6.90;85.40;99900.86;1784451;80;20900;-80
2022/04/19 03:29:14;;;;;;;6.47;4.10;;;;;;;6.85;85.40;99894.60;1784305;80;20931;-80
2022/04/19 03:31:41;;;;;;;4.95;3.80;;;;;;;6.85;85.72;99875.05;1783855;80;20971;-80
2022/04/19 03:34:08;;;;;;;5.25;3.80;;;;;;;6.89;85.57;99873.93;1784072;80;20936;-78
2022/04/19 03:36:35;;;;;;;3.70;3.25;;;;;;;6.88;85.40;99881.39;1784323;80;20880;-80
2022/04/19 03:39:03;;;;;;;5.50;3.85;;;;;;;6.87;85.36;99881.02;1784104;80;21143;-80
2022/04/19 03:41:29;;;;;;;7.00;3.58;;;;;;;6.87;85.45;99889.28;1784282;79;21046;-80
2022/04/19 03:43:55;;;;;;;5.83;3.40;;;;;;;6.87;85.71;99894.49;1784180;80;20972;-80
2022/04/19 03:46:22;;;;;;;3.95;3.62;;;;;;;6.87;85.63;99891.45;1783877;80;20924;-80
2022/04/19 03:48:49;;;;;;;4.65;3.92;;;;;;;6.90;85.69;99895.17;1784124;80;20940;-80
2022/04/19 03:51:18;;;;;;;6.12;4.90;;;;;;;6.94;85.83;99898.45;1783885;80;22093;-81
2022/04/19 03:53:46;;;;;;;4.75;3.75;;;;;;;6.96;85.65;99897.44;1783831;80;20888;-80
2022/04/19 03:56:13;;;;;;;5.70;3.90;;;;;;;6.94;85.49;99894.08;1783836;80;20983;-80
2022/04/19 03:58:40;;;;;;;6.35;3.90;;;;;;;6.95;85.49;99905.34;1783777;80;20900;-80
2022/04/19 04:01:07;;;;;;;4.12;3.62;;;;;;;6.97;85.37;99904.79;1783852;80;21602;-81
2022/04/19 04:03:33;;;;;;;4.70;3.67;;;;;;;6.93;85.35;99904.58;1783941;80;21143;-79
2022/04/19 04:06:01;;;;;;;6.30;4.47;;;;;;;6.92;85.35;99913.34;1783850;80;20900;-80
2022/04/19 04:08:29;;;;;;;4.53;4.12;;;;;;;6.88;85.30;99907.45;1783870;80;21417;-80
2022/04/19 04:10:57;;;;;;;8.15;4.72;;;;;;;6.88;85.59;99910.05;1784183;80;21322;-80
2022/04/19 04:13:28;;;;;;;6.90;4.70;;;;;;;6.90;85.54;99909.98;1783950;80;20865;-80
2022/04/19 04:15:54;;;;;;;6.08;4.37;;;;;;;6.88;85.57;99902.23;1783891;80;21153;-79
2022/04/19 04:18:21;;;;;;;6.47;5.05;;;;;;;6.92;85.85;99913.34;1781827;80;20936;-81
2022/04/19 04:20:50;;;;;;;6.72;5.33;;;;;;;6.96;85.79;99916.98;1775372;80;20996;-81
2022/04/19 04:23:16;;;;;;;7.67;4.58;;;;;;;6.95;85.63;99908.77;1775642;80;20912;-79
2022/04/19 04:25:44;;;;;;;5.10;4.33;;;;;;;6.97;85.54;99913.91;1775491;80;20915;-80
2022/04/19 04:28:14;;;;;;;10.53;4.95;;;;;;;6.99;85.72;99920.72;1768812;80;21683;-80
2022/04/19 04:30:42;;;;;;;5.08;3.72;;;;;;;7.01;85.52;99918.86;1775290;80;20951;-78
2022/04/19 04:33:10;;;;;;;6.15;4.53;;;;;;;6.97;85.12;99917.35;1775498;80;20995;-79
2022/04/19 04:35:37;;;;;;;4.72;4.17;;;;;;;6.90;85.14;99925.62;1768773;80;20984;-79
2022/04/19 04:38:04;;;;;;;6.55;5.05;;;;;;;6.85;85.36;99926.70;1775650;80;20936;-81
2022/04/19 04:40:32;;;;;;;7.80;4.25;;;;;;;6.82;85.30;99924.72;1775324;80;20952;-80
2022/04/19 04:43:01;;;;;;;5.50;4.75;;;;;;;6.83;85.78;99931.16;1774936;80;20869;-81
2022/04/19 04:45:29;;;;;;;7.10;5.20;;;;;;;6.84;85.91;99936.73;1775320;80;20964;-80
2022/04/19 04:50:40;;;;;;;6.00;4.35;;;;;;;6.96;86.07;99925.25;1740290;80;20936;-80
2022/04/19 04:53:07;;;;;;;5.03;3.45;;;;;;;6.98;85.87;99920.35;1775321;80;21132;-80
2022/04/19 04:55:34;;;;;;;5.72;3.80;;;;;;;6.99;85.81;99923.79;1775308;80;20861;-80
2022/04/19 04:58:04;;;;;;;7.17;4.60;;;;;;;6.99;85.60;99924.63;1775278;80;20908;-79
2022/04/19 05:00:31;;;;;;;7.30;5.22;;;;;;;6.98;85.74;99928.17;1775175;80;20900;-80
2022/04/19 05:02:59;;;;;;;9.65;5.47;;;;;;;7.04;86.13;99930.41;1775575;80;20972;-81
2022/04/19 05:05:28;;;;;;;5.08;3.90;;;;;;;7.11;85.94;99935.28;1775238;80;20880;-81
2022/04/19 05:07:56;;;;;;;5.58;3.85;;;;;;;7.13;85.96;99940.78;1775065;80;21421;-80
2022/04/19 05:10:25;;;;;;;5.35;4.20;;;;;;;7.18;85.76;99935.30;1775251;80;21349;-80
2022/04/19 05:12:53;;;;;;;7.47;3.65;;;;;;;7.19;85.71;99943.52;1768508;80;20884;-80
2022/04/19 05:15:22;;;;;;;5.05;3.60;;;;;;;7.22;85.65;99950.69;1775107;80;21339;-79
2022/04/19 05:17:51;;;;;;;4.70;3.55;;;;;;;7.29;85.54;99947.27;1775331;80;20956;-79
2022/04/19 05:20:18;;;;;;;4.47;3.67;;;;;;;7.30;85.23;99949.44;1775120;80;20922;-82
2022/04/19 05:22:45;;;;;;;6.65;3.60;;;;;;;7.34;85.23;99961.38;1775154;80;20868;-80
2022/04/19 05:25:12;;;;;;;5.90;3.20;;;;;;;7.38;85.18;99968.07;1775169;80;20975;-79
2022/04/19 05:27:40;;;;;;;6.20;4.08;;;;;;;7.41;84.97;99957.48;1775305;80;20999;-80
2022/04/19 05:30:08;;;;;;;5.78;3.22;;;;;;;7.42;84.67;99955.23;1775325;80;21867;-80
2022/04/19 05:32:37;;;;;;;5.80;4.30;;;;;;;7.38;84.73;99962.85;1775155;80;20924;-80
2022/04/19 05:35:05;;;;;;;6.90;3.83;;;;;;;7.40;85.04;99958.39;1775305;80;20983;-81
2022/04/19 05:37:31;;;;;;;6.92;3.98;;;;;;;7.44;85.10;99945.55;1775291;80;20944;-81
2022/04/19 05:39:58;;;;;;;5.90;3.70;;;;;;;7.47;84.97;99941.01;1775328;80;20877;-79
2022/04/19 05:42:25;;;;;;;4.78;3.67;;;;;;;7.47;84.96;99941.48;1775444;80;21139;-80
2022/04/19 05:44:53;;;;;;;5.35;3.40;;;;;;;7.50;85.14;99940.46;1775104;80;20889;-80
2022/04/19 05:47:19;;;;;;;4.08;3.05;;;;;;;7.54;85.24;99931.53;1775301;80;20995;-80
2022/04/19 05:49:46;;;;;;;5.15;3.17;;;;;;;7.58;85.23;99929.95;1775033;80;20880;-83
2022/04/19 05:52:13;;;;;;;4.85;3.62;;;;;;;7.64;85.17;99923.52;1775266;80;20952;-81
2022/04/19 05:54:41;;;;;;;7.65;5.40;;;;;;;7.66;85.11;99917.27;1775159;80;21992;-80
2022/04/19 05:57:10;;;;;;;5.12;3.60;;;;;;;7.75;85.50;99930.24;1753443;80;20896;-83
2022/04/19 05:59:38;;;;;;;4.22;3.60;;;;;;;7.88;85.41;99942.11;1775266;80;20912;-80
2022/04/19 06:04:54;;;;;;;4.03;3.30;;;;;;;8.10;84.89;99939.87;1775363;80;20948;-81
2022/04/19 06:07:25;;;;;;;5.28;3.52;;;;;;;8.22;84.67;99953.13;1775433;80;20980;-81
2022/04/19 06:09:53;;;;;;;4.87;4.08;;;;;;;8.29;83.94;99961.81;1775143;80;20959;-80
2022/04/19 06:12:20;;;;;;;6.95;3.60;;;;;;;8.28;83.49;99949.67;1775194;80;21429;-80
2022/04/19 06:14:49;;;;;;;4.87;2.95;;;;;;;8.26;83.00;99940.25;1775085;80;20853;-81
2022/04/19 06:17:17;;;;;;;6.45;3.83;;;;;;;8.19;82.82;99949.41;1775486;80;20885;-80
2022/04/19 06:19:45;;;;;;;4.90;3.15;;;;;;;8.14;82.99;99968.41;1779619;80;21331;-80
2022/04/19 06:22:13;;;;;;;8.43;3.65;;;;;;;8.13;83.34;99964.13;1783359;80;20974;-80
2022/04/19 06:24:41;;;;;;;7.15;3.52;;;;;;;8.14;83.12;99944.91;1783482;80;20916;-81
2022/04/19 06:27:08;;;;;;;7.78;3.98;;;;;;;8.14;83.04;99952.73;1783360;80;20931;-81
2022/04/19 06:29:35;;;;;;;5.22;3.40;;;;;;;8.09;82.97;99955.19;1783525;80;20892;-81
2022/04/19 06:32:03;;;;;;;5.87;3.55;;;;;;;8.09;83.04;99943.88;1783447;80;21146;-81
2022/04/19 06:34:36;;;;;;;4.90;3.87;;;;;;;8.06;82.92;99929.24;1783450;80;20973;-81
2022/04/19 06:37:06;;;;;;;6.37;3.80;;;;;;;8.02;83.09;99953.02;1782953;80;20931;-84
2022/04/19 06:39:33;;;;;;;5.08;4.17;;;;;;;8.01;83.22;99959.19;1778789;80;20956;-81
2022/04/19 06:42:01;;;;;;;6.30;4.00;;;;;;;7.99;83.16;99971.49;1783493;80;20983;-84
2022/04/19 06:44:29;;;;;;;8.05;4.78;;;;;;;7.96;83.18;99969.91;1783226;80;21155;-82
2022/04/19 06:47:01;;;;;;;6.60;4.22;;;;;;;7.96;83.54;99972.52;1782653;80;21028;-81
2022/04/19 06:49:27;;;;;;;5.03;4.53;;;;;;;8.02;83.54;99970.83;1783861;80;20896;-82
2022/04/19 06:51:54;;;;;;;5.80;3.37;;;;;;;8.04;83.39;99970.27;1783335;80;20857;-82
2022/04/19 06:54:21;;;;;;;8.48;4.78;;;;;;;8.06;83.36;99978.02;1783558;80;21023;-81
2022/04/19 06:56:51;;;;;;;8.45;4.33;;;;;;;8.07;83.36;99974.47;1783986;80;21213;-80
2022/04/19 06:59:21;;;;;;;8.85;5.53;;;;;;;8.07;83.36;99973.16;1783422;80;21019;-81
2022/04/19 07:01:48;;;;;;;8.43;4.85;;;;;;;8.10;83.58;99979.05;1765804;80;20906;-82
2022/04/19 07:04:18;;;;;;;8.10;4.53;;;;;;;8.12;83.40;99963.30;1779236;80;21401;-81
2022/04/19 07:06:49;;;;;;;6.55;4.70;;;;;;;8.14;83.33;99961.88;1783436;80;21042;-82
2022/04/19 07:09:17;;;;;;;8.63;5.70;;;;;;;8.15;83.56;99964.88;1783540;80;21187;-81
2022/04/19 07:11:45;;;;;;;6.22;4.42;;;;;;;8.20;83.56;99966.73;1783563;80;20927;-81
2022/04/19 07:14:19;;;;;;;7.65;5.17;;;;;;;8.21;83.39;99977.58;1783633;80;20971;-81
2022/04/19 07:16:52;;;;;;;6.60;4.25;;;;;;;8.22;83.56;99989.69;1771146;80;20924;-81
2022/04/19 07:19:19;;;;;;;6.33;4.78;;;;;;;8.24;83.38;99987.83;1783567;80;21022;-81
2022/04/19 07:27:21;;;;;;;6.87;4.25;;;;;;;8.34;83.66;99957.61;1784553;80;21436;-83
2022/04/19 07:29:50;;;;;;;7.08;4.28;;;;;;;8.39;83.27;99945.57;1783932;80;21027;-81
2022/04/19 07:32:16;;;;;;;8.18;4.42;;;;;;;8.37;82.97;99934.38;1783902;80;20865;-82
2022/04/19 07:34:56;;;;;;;7.85;5.47;;;;;;;8.35;82.93;99936.23;1783205;80;21433;-80
2022/04/19 07:37:23;;;;;;;6.60;3.87;;;;;;;8.35;83.15;99936.23;1783883;80;20916;-81
2022/04/19 07:39:50;;;;;;;7.05;4.97;;;;;;;8.38;83.29;99924.28;1783951;80;20959;-80
2022/04/19 07:42:16;;;;;;;7.20;4.58;;;;;;;8.39;83.24;99917.66;1783706;80;20897;-80
2022/04/19 07:44:44;;;;;;;7.17;4.65;;;;;;;8.40;83.26;99923.27;1783793;80;20943;-80
2022/04/19 07:47:17;;;;;;;5.87;4.45;;;;;;;8.40;82.88;99927.19;1783843;80;21188;-80
2022/04/19 07:49:39;;;;;;;6.45;3.90;;;;;;;8.35;82.71;99911.42;1781977;80;20971;-80
2022/04/19 07:52:06;;;;;;;5.37;3.42;;;;;;;8.34;83.08;99899.27;1783670;80;21006;-81
2022/04/19 07:54:32;;;;;;;4.65;3.30;;;;;;;8.34;83.21;99875.32;1783992;80;21425;-82
2022/04/19 07:57:01;;;;;;;7.83;4.78;;;;;;;8.34;83.11;99838.75;1783839;80;20924;-82
2022/04/19 07:59:28;;;;;;;6.05;3.52;;;;;;;8.32;82.93;99869.34;1783754;80;22040;-80
2022/04/19 08:01:55;;;;;;;6.33;4.75;;;;;;;8.29;82.95;99886.50;1783800;80;20849;-80
2022/04/19 08:04:22;;;;;;;5.17;3.83;;;;;;;8.26;83.04;99879.70;1783744;80;20943;-81
2022/04/19 08:06:51;;;;;;;5.20;4.08;;;;;;;8.25;83.42;99879.34;1783602;80;20932;-82
2022/04/19 08:09:19;;;;;;;7.03;4.55;;;;;;;8.30;83.58;99875.97;1783582;80;20920;-81
2022/04/19 08:11:48;;;;;;;5.28;4.05;;;;;;;8.35;83.48;99880.90;1783617;80;21801;-82
2022/04/19 08:14:15;;;;;;;4.55;3.17;;;;;;;8.39;83.42;99881.09;1783698;80;20888;-82
2022/04/19 08:16:44;;;;;;;5.10;3.90;;;;;;;8.44;83.54;99871.20;1783592;80;21638;-81
2022/04/19 08:19:12;;;;;;;6.95;3.50;;;;;;;8.51;83.63;99871.66;1782878;80;20884;-81
2022/04/19 08:21:40;;;;;;;5.35;3.75;;;;;;;8.58;83.32;99879.50;1775303;80;20948;-81
2022/04/19 08:24:08;;;;;;;3.92;3.25;;;;;;;8.66;83.60;99897.30;1775667;80;21291;-83
2022/04/19 08:26:38;;;;;;;6.12;3.65;;;;;;;8.82;83.46;99904.98;1775378;80;20857;-80
2022/04/19 08:29:05;;;;;;;4.92;3.60;;;;;;;8.97;83.25;99913.16;1775829;80;21364;-80
2022/04/19 08:31:31;;;;;;;5.20;4.03;;;;;;;9.09;82.85;99929.81;1775853;80;20928;-80
2022/04/19 08:33:58;;;;;;;6.00;3.75;;;;;;;9.19;82.50;99946.61;1775331;80;20896;-81
2022/04/19 08:36:25;;;;;;;5.15;3.40;;;;;;;9.32;82.18;99948.79;1775325;80;21930;-81
2022/04/19 08:38:53;;;;;;;4.97;3.70;;;;;;;9.42;81.73;99956.86;1775286;80;20948;-81
2022/04/19 08:41:21;;;;;;;4.15;3.17;;;;;;;9.46;81.43;99970.59;1775237;80;21476;-82
2022/04/19 08:43:48;;;;;;;4.92;4.08;;;;;;;9.50;81.27;99979.45;1775223;80;20904;-81
2022/04/19 08:46:14;;;;;;;9.23;3.77;;;;;;;9.54;81.07;99986.65;1729031;80;20841;-82
2022/04/19 08:48:42;;;;;;;6.42;4.33;;;;;;;9.55;80.76;99994.37;1744380;80;21236;-84
2022/04/19 08:51:10;;;;;;;4.87;3.52;;;;;;;9.59;80.63;100001.56;1775354;80;21066;-82
2022/04/19 08:59:10;;;;;;;4.92;3.33;;;;;;;9.48;79.88;100007.50;1775276;80;21544;-81
2022/04/19 09:01:39;;;;;;;5.30;3.95;;;;;;;9.48;80.07;100010.12;1775352;80;21144;-81
2022/04/19 09:04:06;;;;;;;6.35;3.90;;;;;;;9.49;80.15;100010.95;1775353;80;20936;-82
2022/04/19 09:06:59;;;;;;;6.58;4.25;;;;;;;9.52;80.34;100015.53;1775229;80;20920;-81
2022/04/19 09:09:30;;;;;;;6.10;3.33;;;;;;;9.61;80.26;100023.25;1775231;80;21401;-81
2022/04/19 09:12:11;;;;;;;5.25;3.80;;;;;;;9.63;79.50;100020.06;1775240;80;21393;-81
2022/04/19 09:15:00;;;;;;;4.15;3.20;;;;;;;9.59;79.54;100019.06;1775366;80;21097;-80
2022/04/19 09:17:33;;;;;;;5.10;3.45;;;;;;;9.55;79.41;100017.93;1775150;80;20880;-81
2022/04/19 09:20:21;;;;;;;5.35;4.45;;;;;;;9.52;79.55;100020.77;1775086;80;20991;-81
2022/04/19 09:23:00;;;;;;;5.15;3.45;;;;;;;9.53;79.71;100014.58;1775275;80;21043;-81
2022/04/19 09:25:27;;;;;;;4.60;3.50;;;;;;;9.56;80.10;100001.78;1775244;80;21398;-81
2022/04/19 09:27:54;;;;;;;6.00;3.77;;;;;;;9.60;80.29;100013.70;1775560;80;21116;-80
2022/04/19 09:30:31;;;;;;;4.75;3.65;;;;;;;9.63;80.01;100017.45;1775252;80;20971;-83
2022/04/19 09:33:12;;;;;;;5.72;4.25;;;;;;;9.66;80.22;100017.71;1775511;80;21499;-80
2022/04/19 09:35:50;;;;;;;3.45;2.67;;;;;;;9.72;79.81;100014.70;1775190;80;21781;-80
2022/04/19 09:38:18;;;;;;;5.00;3.42;;;;;;;9.73;79.79;100025.05;1775304;80;20915;-81
2022/04/19 09:40:48;;;;;;;3.30;2.85;;;;;;;9.77;79.73;100034.03;1775206;80;20900;-83
2022/04/19 09:43:20;;;;;;;5.03;3.17;;;;;;;9.76;79.23;100034.50;1775164;80;20888;-81
2022/04/19 09:45:58;;;;;;;3.65;3.35;;;;;;;9.75;79.40;100048.52;1775671;80;21370;-82
2022/04/19 09:48:27;;;;;;;3.47;2.72;;;;;;;9.74;79.25;100047.69;1775222;80;20940;-80
2022/04/19 09:51:06;;;;;;;4.60;3.42;;;;;;;9.72;79.15;100049.56;1775350;80;20873;-82
2022/04/19 09:53:45;;;;;;;7.50;4.10;;;;;;;9.73;79.14;100050.40;1775168;80;21263;-80
2022/04/19 09:56:15;;;;;;;4.97;2.98;;;;;;;9.75;79.06;100053.75;1775169;80;20984;-82
2022/04/19 09:58:50;;;;;;;3.62;3.33;;;;;;;9.75;78.82;100056.38;1775210;80;20929;-81
2022/04/19 10:09:33;;;;;;;3.87;3.47;;;;;;;9.74;78.86;100041.62;1775227;80;20888;-81
2022/04/19 10:12:03;;;;;;;4.67;3.87;;;;;;;9.77;78.82;100037.48;1775294;80;20948;-79
2022/04/19 10:14:31;;;;;;;4.70;4.05;;;;;;;9.75;78.79;100041.97;1775201;80;21117;-79
2022/04/19 10:16:58;;;;;;;5.40;4.30;;;;;;;9.73;78.81;100039.92;1775482;80;20932;-82
2022/04/19 10:19:25;;;;;;;4.50;4.10;;;;;;;9.72;78.68;100029.09;1775443;80;21134;-81
2022/04/19 10:21:52;;;;;;;4.37;4.00;;;;;;;9.64;78.41;100019.11;1782493;80;21475;-82
2022/04/19 10:24:19;;;;;;;5.92;4.53;;;;;;;9.57;78.49;100013.09;1753075;80;20885;-82
2022/04/19 10:26:51;;;;;;;5.72;4.80;;;;;;;9.50;78.63;99997.77;1783451;80;21349;-80
2022/04/19 10:29:21;;;;;;;4.42;3.77;;;;;;;9.44;79.01;99999.48;1783580;80;20968;-79
2022/04/19 10:32:04;;;;;;;4.80;4.10;;;;;;;9.44;79.08;100000.78;1783718;80;21245;-81
2022/04/19 10:34:33;;;;;;;4.83;4.35;;;;;;;9.43;79.32;100003.05;1784080;80;21568;-81
2022/04/19 10:37:23;;;;;;;5.35;4.85;;;;;;;9.43;79.59;100029.22;1783475;80;21011;-82
2022/04/19 10:40:05;;;;;;;6.65;4.28;;;;;;;9.44;79.67;100049.67;1783427;80;20940;-80
2022/04/19 10:42:38;;;;;;;7.33;4.75;;;;;;;9.44;79.71;100047.06;1783857;80;20924;-81
2022/04/19 10:45:24;;;;;;;6.30;5.70;;;;;;;9.47;79.81;100035.94;1783882;80;20877;-81
2022/04/19 10:47:58;;;;;;;5.70;5.03;;;;;;;9.49;79.83;100044.98;1783198;80;21353;-79
2022/04/19 10:50:39;;;;;;;7.72;6.58;;;;;;;9.52;80.02;100046.11;1783688;80;20915;-81
2022/04/19 10:53:10;;;;;;;7.78;6.95;;;;;;;9.57;79.73;100061.52;1783498;80;21470;-81
2022/04/19 10:56:02;;;;;;;8.25;6.83;;;;;;;9.55;79.66;100060.29;1783194;80;20856;-79
2022/04/19 10:58:41;;;;;;;5.85;5.35;;;;;;;9.58;79.46;100070.55;1783675;80;21190;-80
2022/04/19 11:01:27;;;;;;;8.40;6.92;;;;;;;9.54;79.27;100064.70;1783686;80;20936;-79
2022/04/19 11:03:55;;;;;;;6.70;6.00;;;;;;;9.54;79.31;100083.02;1758076;80;20884;-80
2022/04/19 11:06:38;;;;;;;6.12;5.40;;;;;;;9.56;79.17;100080.31;1778703;80;20943;-81
2022/04/19 11:09:16;;;;;;;7.47;6.53;;;;;;;9.55;78.94;100087.30;1776977;80;20881;-80
2022/04/19 11:11:52;;;;;;;13.20;10.68;;;;;;;9.54;78.92;100090.88;1783494;80;21231;-81
2022/04/19 11:14:31;;;;;;;24.20;16.87;;;;;;;9.53;78.75;100069.55;1783302;80;20912;-80
2022/04/19 11:17:23;;;;;;;35.80;25.45;;;;;;;9.53;78.91;100084.41;1779023;80;20904;-80
2022/04/19 11:19:59;;;;;;;38.30;28.85;;;;;;;9.51;79.04;100085.81;1783555;80;21077;-81
2022/04/19 11:22:29;;;;;;;42.73;31.52;;;;;;;9.50;79.05;100080.22;1768241;80;20884;-83
2022/04/19 11:25:05;;;;;;;45.23;34.03;;;;;;;9.49;79.08;100068.09;1765715;81;21470;-82
2022/04/19 11:27:56;;;;;;;52.43;36.38;;;;;;;9.47;79.32;100066.03;1768152;80;20983;-80
2022/04/19 11:30:25;;;;;;;56.70;40.60;;;;;;;9.47;79.25;100075.20;1749470;81;20892;-80
2022/04/19 11:32:56;;;;;;;56.15;41.45;;;;;;;9.45;79.32;100073.14;1768218;80;21019;-80
2022/04/19 11:35:26;;;;;;;58.17;41.25;;;;;;;9.43;79.36;100079.42;1768325;80;20854;-80
2022/04/19 11:37:52;;;;;;;50.00;36.35;;;;;;;9.43;79.37;100075.49;1768485;81;21235;-81
2022/04/19 11:48:49;;;;;;;74.20;55.05;;;;;;;9.49;78.50;100105.17;1768300;81;20881;-79
2022/04/19 11:51:19;;;;;;;69.75;45.65;;;;;;;9.44;78.35;100108.56;1768308;80;21259;-80
2022/04/19 11:53:47;;;;;;;61.40;43.05;;;;;;;9.40;78.16;100110.52;1768129;81;21011;-80
2022/04/19 11:56:16;;;;;;;60.50;41.58;;;;;;;9.37;77.99;100089.80;1768223;81;20854;-80
2022/04/19 11:58:46;;;;;;;51.55;38.48;;;;;;;9.33;78.29;100090.44;1768177;81;20980;-80
2022/04/19 12:01:14;;;;;;;45.12;33.23;;;;;;;9.37;78.71;100079.33;1765672;81;20901;-80
2022/04/19 12:03:42;;;;;;;34.80;24.25;;;;;;;9.43;79.01;100078.11;1668544;83;21496;-80
2022/04/19 12:06:20;;;;;;;29.18;23.07;;;;;;;9.49;79.05;100098.19;1716286;83;21504;-81
2022/04/19 12:08:51;;;;;;;14.68;12.10;;;;;;;9.53;79.02;100092.27;1716458;83;20928;-81
2022/04/19 12:11:29;;;;;;;18.85;13.15;;;;;;;9.57;78.88;100087.69;1717659;83;20904;-80
2022/04/19 12:13:57;;;;;;;28.00;15.50;;;;;;;9.59;78.68;100087.13;1717138;83;20893;-80
2022/04/19 12:16:39;;;;;;;25.85;13.03;;;;;;;9.59;78.77;100106.28;1716554;83;21394;-80
2022/04/19 12:19:12;;;;;;;30.72;13.83;;;;;;;9.60;78.46;100101.40;1716461;83;20912;-81
2022/04/19 12:21:43;;;;;;;19.30;11.78;;;;;;;9.52;77.97;100075.73;1716290;82;20869;-80
2022/04/19 12:24:23;;;;;;;17.70;12.10;;;;;;;9.44;78.08;100087.63;1716431;83;20944;-80
2022/04/19 12:27:05;;;;;;;17.37;11.75;;;;;;;9.44;78.47;100082.39;1716507;83;20929;-79
2022/04/19 12:29:35;;;;;;;9.70;8.70;;;;;;;9.44;78.38;100079.30;1716600;83;21253;-81
2022/04/19 12:32:05;;;;;;;10.03;9.05;;;;;;;9.41;78.12;100082.13;1716644;83;21057;-81
2022/04/19 12:34:34;;;;;;;9.73;6.65;;;;;;;9.38;78.28;100098.48;1716510;83;20897;-80